Sayre, Alabama
Current Conditions -  °F | °C
As of 8:53 PM on Saturday 22 Nov 2014 (Local Time) from KBHM Reporting Station
Overcast Overcast  
Wind Chill: 16°   Ceiling: 3400
Heat Index: 16°   Visibility: 10mi
Dew Point:   Wind: 8mph
Humidity: 64%   Direction: 130°SE
Pressure: 30.15"   Gusts: 20mph
Location:  33.71°N, 86.97°W
Report Text: KBHM 230253Z 13007G17KT 10SM SCT029 BKN034 OVC050 16/09 A3015 RMK AO2 SLP206 T01560089 56009
Loading
Personal Weather Stations






























Interactive Weather Map New forecast layout! Learn more

10-Day Weather Forecast

Advertisements
Track Severe Weather on mobile